Grand Canyon National Park, Arizona
Current Conditions -  °F | °C
As of 11:54 AM on Sunday 21 Dec 2014 (Local Time) from KGCN Reporting Station
Clear Clear  
Wind Chill: 39°   Ceiling: Unl
Heat Index: 43°   Visibility: 10mi
Dew Point: 30°   Wind: 6mph
Humidity: 60%   Direction: NA
Pressure: 30.14"   Gusts: NA
Location:  36.0547°N, 112.138°W
Report Text: KGCN 211854Z VRB05KT 10SM CLR 06/M01 A3014 RMK AO2 SLP194 T00611011
Loading
Personal Weather Stations






























Interactive Weather Map New forecast layout! Learn more

10-Day Weather Forecast

Advertisements
Track Severe Weather on mobile